Airport View

Enter AWOS ICAO identifier for current METAR.

ex. KFNL

KHJO 202353Z AUTO VRB04KT 10SM CLR 29/08 A2988 RMK AO2 SLP120 T02890078 10294 20228 56013 $

21 Sep 2019 00:34

Frequency: 134.75

Phone: 559-585-8076

Other Area AWOS: KVIS - KNLC - KFCH - KFAT

TAF KVIS 202320Z 2100/2124 29005KT P6SM SKC FM210600 00000KT P6SM SKC FM211200 12005KT P6SM SKC FM211800 VRB03KT P6SM SCT250